createdAt,value
2018-06-16T00:01:35.545Z,22.94
2018-06-16T00:04:04.088Z,22.89
2018-06-16T00:06:32.647Z,22.85
2018-06-16T00:09:01.201Z,22.79
2018-06-16T00:11:29.799Z,22.73
2018-06-16T00:13:58.383Z,22.69
2018-06-16T00:16:27.023Z,22.67
2018-06-16T00:18:55.625Z,22.63
2018-06-16T00:21:24.271Z,22.59
2018-06-16T00:23:52.876Z,22.58
2018-06-16T00:26:21.334Z,22.54
2018-06-16T00:28:49.966Z,22.53
2018-06-16T00:31:18.595Z,22.50
2018-06-16T00:33:47.212Z,22.47
2018-06-16T00:36:15.789Z,22.49
2018-06-16T00:38:44.350Z,22.48
2018-06-16T00:41:13.003Z,22.48
2018-06-16T00:43:41.523Z,22.49
2018-06-16T00:46:10.145Z,22.48
2018-06-16T00:48:38.695Z,22.49
2018-06-16T00:51:07.226Z,22.47
2018-06-16T00:53:35.811Z,22.46
2018-06-16T00:56:04.434Z,22.46
2018-06-16T00:58:33.076Z,22.45
2018-06-16T01:01:01.760Z,22.44
2018-06-16T01:03:30.301Z,22.41
2018-06-16T01:05:58.819Z,22.38
2018-06-16T01:08:27.431Z,22.34
2018-06-16T01:10:56.116Z,22.30
2018-06-16T01:13:24.684Z,22.29
2018-06-16T01:15:53.269Z,22.25
2018-06-16T01:18:21.910Z,22.21
2018-06-16T01:20:50.480Z,22.19
2018-06-16T01:23:19.015Z,22.19
2018-06-16T01:25:47.542Z,22.17
2018-06-16T01:28:16.028Z,22.16
2018-06-16T01:30:44.535Z,22.13
2018-06-16T01:33:13.034Z,22.11
2018-06-16T01:35:41.523Z,22.09
2018-06-16T01:38:10.236Z,22.06
2018-06-16T01:40:38.835Z,22.01
2018-06-16T01:43:07.519Z,21.98
2018-06-16T01:45:36.087Z,21.95
2018-06-16T01:48:04.792Z,21.92
2018-06-16T01:50:33.509Z,21.90
2018-06-16T01:53:02.062Z,21.87
2018-06-16T01:55:30.542Z,21.84
2018-06-16T01:57:59.060Z,21.81
2018-06-16T02:00:27.591Z,21.78
2018-06-16T02:02:56.150Z,21.75
2018-06-16T02:05:24.615Z,21.73
2018-06-16T02:07:53.264Z,21.69
2018-06-16T02:10:21.759Z,21.64
2018-06-16T02:12:50.447Z,21.61
2018-06-16T02:15:19.197Z,21.58
2018-06-16T02:17:47.721Z,21.55
2018-06-16T02:20:16.238Z,21.54
2018-06-16T02:22:44.693Z,21.51
2018-06-16T02:25:13.233Z,21.49
2018-06-16T02:27:41.700Z,21.46
2018-06-16T02:30:10.251Z,21.44
2018-06-16T02:32:38.844Z,21.42
2018-06-16T02:35:07.339Z,21.42
2018-06-16T02:37:35.834Z,21.41
2018-06-16T02:40:04.382Z,21.39
2018-06-16T02:42:32.841Z,21.38
2018-06-16T02:45:01.379Z,21.37
2018-06-16T02:47:29.902Z,21.34
2018-06-16T02:49:58.482Z,21.35
2018-06-16T02:52:26.962Z,21.37
2018-06-16T02:54:55.519Z,21.38
2018-06-16T02:57:24.083Z,21.40
2018-06-16T02:59:52.639Z,21.39
2018-06-16T03:02:21.191Z,21.40
2018-06-16T03:04:49.700Z,21.41
2018-06-16T03:07:18.427Z,21.41
2018-06-16T03:09:47.241Z,21.41
2018-06-16T03:12:15.737Z,21.41
2018-06-16T03:14:44.183Z,21.42
2018-06-16T03:17:12.702Z,21.43
2018-06-16T03:19:41.242Z,21.43
2018-06-16T03:22:09.858Z,21.43
2018-06-16T03:24:38.326Z,21.43
2018-06-16T03:27:06.905Z,21.44
2018-06-16T03:29:35.531Z,21.45
2018-06-16T03:32:04.919Z,21.43
2018-06-16T03:34:33.475Z,21.44
2018-06-16T03:37:01.965Z,21.43
2018-06-16T03:39:30.582Z,21.42
2018-06-16T03:41:59.052Z,21.42
2018-06-16T03:44:27.687Z,21.44
2018-06-16T03:46:56.160Z,21.45
2018-06-16T03:49:24.747Z,21.45
2018-06-16T03:51:53.244Z,21.47
2018-06-16T03:54:21.871Z,21.47
2018-06-16T03:56:50.443Z,21.51
2018-06-16T03:59:19.040Z,21.51
2018-06-16T04:01:47.608Z,21.54
2018-06-16T04:04:16.194Z,21.58
2018-06-16T04:06:44.709Z,21.62
2018-06-16T04:09:13.159Z,21.63
2018-06-16T04:11:41.708Z,21.65
2018-06-16T04:14:10.337Z,21.68
2018-06-16T04:16:38.938Z,21.70
2018-06-16T04:19:07.440Z,21.73
2018-06-16T04:21:36.039Z,21.78
2018-06-16T04:24:04.623Z,21.85
2018-06-16T04:26:33.256Z,21.89
2018-06-16T04:29:01.920Z,21.97
2018-06-16T04:31:30.611Z,22.02
2018-06-16T04:33:59.261Z,22.09
2018-06-16T04:36:27.856Z,22.16
2018-06-16T04:38:56.427Z,22.22
2018-06-16T04:41:24.987Z,22.30
2018-06-16T04:43:53.582Z,22.36
2018-06-16T04:46:22.145Z,22.45
2018-06-16T04:48:50.873Z,22.52
2018-06-16T04:51:19.403Z,22.60
2018-06-16T04:53:48.044Z,22.69
2018-06-16T04:56:16.599Z,22.78
2018-06-16T04:58:45.224Z,22.87
2018-06-16T05:01:13.766Z,22.98
2018-06-16T05:03:42.278Z,23.05
2018-06-16T05:06:11.146Z,23.14
2018-06-16T05:08:39.890Z,23.21
2018-06-16T05:11:08.675Z,23.27
2018-06-16T05:13:37.223Z,23.30
2018-06-16T05:16:06.542Z,23.34
2018-06-16T05:18:35.230Z,23.36
2018-06-16T05:21:03.897Z,23.40
2018-06-16T05:23:32.575Z,23.43
2018-06-16T05:26:01.274Z,23.48
2018-06-16T05:28:29.938Z,23.51
2018-06-16T05:30:58.578Z,23.55
2018-06-16T05:33:27.370Z,23.63
2018-06-16T05:35:56.075Z,23.71
2018-06-16T05:38:24.877Z,23.82
2018-06-16T05:40:53.687Z,23.97
2018-06-16T05:43:22.207Z,24.10
2018-06-16T05:45:50.934Z,24.29
2018-06-16T05:48:19.589Z,24.48
2018-06-16T05:50:48.480Z,24.72
2018-06-16T05:53:17.239Z,24.95
2018-06-16T05:55:45.975Z,25.22
2018-06-16T05:58:14.606Z,25.50
2018-06-16T06:00:43.325Z,25.83
2018-06-16T06:03:11.980Z,26.16
2018-06-16T06:05:40.598Z,26.45
2018-06-16T06:08:09.220Z,26.79
2018-06-16T06:10:38.022Z,27.02
2018-06-16T06:13:06.715Z,27.20
2018-06-16T06:15:35.625Z,27.29
2018-06-16T06:18:04.354Z,27.41
2018-06-16T06:20:33.002Z,27.52
2018-06-16T06:23:02.286Z,27.55
2018-06-16T06:25:30.817Z,27.61
2018-06-16T06:27:59.771Z,27.72
2018-06-16T06:30:28.429Z,27.80
2018-06-16T06:32:57.013Z,27.85
2018-06-16T06:35:25.482Z,27.96
2018-06-16T06:37:54.451Z,28.15
2018-06-16T06:40:23.827Z,28.38
2018-06-16T06:42:52.589Z,28.48
2018-06-16T06:45:21.213Z,28.60
2018-06-16T06:47:49.866Z,28.68
2018-06-16T06:50:18.859Z,28.58
2018-06-16T06:52:47.545Z,28.46
2018-06-16T06:55:16.246Z,28.48
2018-06-16T06:57:45.062Z,28.50
2018-06-16T07:00:13.706Z,28.55
2018-06-16T07:02:42.398Z,28.73
2018-06-16T07:05:11.380Z,28.94
2018-06-16T07:07:40.242Z,29.21
2018-06-16T07:10:08.952Z,29.60
2018-06-16T07:12:37.657Z,30.01
2018-06-16T07:15:06.421Z,30.36
2018-06-16T07:17:35.150Z,30.70
2018-06-16T07:20:03.905Z,31.03
2018-06-16T07:22:32.606Z,31.16
2018-06-16T07:25:01.202Z,31.38
2018-06-16T07:27:29.849Z,31.54
2018-06-16T07:29:58.471Z,31.56
2018-06-16T07:32:31.515Z,31.83
2018-06-16T07:35:00.110Z,32.25
2018-06-16T07:37:28.830Z,32.79
2018-06-16T07:39:59.366Z,33.25
2018-06-16T07:42:28.213Z,33.74
2018-06-16T07:44:56.828Z,34.02
2018-06-16T07:47:25.528Z,34.30
2018-06-16T07:49:54.220Z,34.51
2018-06-16T07:52:23.015Z,34.68
2018-06-16T07:54:51.725Z,34.66
2018-06-16T07:57:20.500Z,34.55
2018-06-16T07:59:49.165Z,34.66
2018-06-16T08:02:17.707Z,34.86
2018-06-16T08:04:47.341Z,35.15
2018-06-16T08:07:16.055Z,35.18
2018-06-16T08:12:34.156Z,35.08
2018-06-16T08:15:09.243Z,34.94
2018-06-16T08:17:37.933Z,35.01
2018-06-16T08:20:15.034Z,34.98
2018-06-16T08:22:43.779Z,34.81
2018-06-16T08:25:14.680Z,34.78
2018-06-16T08:27:43.207Z,34.81
2018-06-16T08:30:11.828Z,35.02
2018-06-16T08:32:40.361Z,35.27
2018-06-16T08:35:09.099Z,35.38
2018-06-16T08:37:37.775Z,35.40
2018-06-16T08:40:06.611Z,35.52
2018-06-16T08:42:35.341Z,35.55
2018-06-16T08:45:03.950Z,35.47
2018-06-16T08:47:32.564Z,35.29
2018-06-16T08:50:01.233Z,35.15
2018-06-16T08:52:29.906Z,35.00
2018-06-16T08:54:58.537Z,34.92
2018-06-16T08:57:28.901Z,34.91
2018-06-16T08:59:57.663Z,35.08
2018-06-16T09:02:26.307Z,35.45
2018-06-16T09:04:56.105Z,35.81
2018-06-16T09:07:29.369Z,36.11
2018-06-16T09:10:01.536Z,36.42
2018-06-16T09:12:30.411Z,36.56
2018-06-16T09:14:59.043Z,36.80
2018-06-16T09:17:27.719Z,36.99
2018-06-16T09:19:56.452Z,37.22
2018-06-16T09:22:25.201Z,37.28
2018-06-16T09:24:54.391Z,37.19
2018-06-16T09:27:23.329Z,37.26
2018-06-16T09:29:51.909Z,37.48
2018-06-16T09:32:20.615Z,37.87
2018-06-16T09:34:49.456Z,38.10
2018-06-16T09:37:18.140Z,38.33
2018-06-16T09:39:46.771Z,38.54
2018-06-16T09:42:15.646Z,38.64
2018-06-16T09:44:45.735Z,38.56
2018-06-16T09:47:25.183Z,38.45
2018-06-16T09:49:53.938Z,38.43
2018-06-16T09:52:22.752Z,38.41
2018-06-16T09:54:51.567Z,38.53
2018-06-16T09:57:20.243Z,38.73
2018-06-16T09:59:48.934Z,38.90
2018-06-16T10:02:17.693Z,39.26
2018-06-16T10:04:46.314Z,39.39
2018-06-16T10:07:14.895Z,39.40
2018-06-16T10:09:43.532Z,38.89
2018-06-16T10:12:12.214Z,39.34
2018-06-16T10:14:41.019Z,39.42
2018-06-16T10:17:09.692Z,39.53
2018-06-16T10:19:38.383Z,39.53
2018-06-16T10:22:07.092Z,39.39
2018-06-16T10:24:35.900Z,39.55
2018-06-16T10:27:05.430Z,39.90
2018-06-16T10:29:34.155Z,40.16
2018-06-16T10:32:03.005Z,40.55
2018-06-16T10:34:31.693Z,40.93
2018-06-16T10:37:00.736Z,41.32
2018-06-16T10:39:29.583Z,41.34
2018-06-16T10:41:58.429Z,41.27
2018-06-16T10:44:27.171Z,41.23
2018-06-16T10:46:56.155Z,41.47
2018-06-16T10:49:24.795Z,41.19
2018-06-16T10:51:53.500Z,41.50
2018-06-16T10:54:22.073Z,41.71
2018-06-16T10:56:50.670Z,41.91
2018-06-16T10:59:19.340Z,41.87
2018-06-16T11:01:48.036Z,41.72
2018-06-16T11:04:16.662Z,41.67
2018-06-16T11:06:45.482Z,41.55
2018-06-16T11:09:14.216Z,41.58
2018-06-16T11:11:42.791Z,42.18
2018-06-16T11:14:11.416Z,42.89
2018-06-16T11:16:40.060Z,43.13
2018-06-16T11:19:08.734Z,42.59
2018-06-16T11:21:37.610Z,41.65
2018-06-16T11:24:06.285Z,40.85
2018-06-16T11:26:34.854Z,40.21
2018-06-16T11:29:03.527Z,39.68
2018-06-16T11:31:32.243Z,39.24
2018-06-16T11:34:00.939Z,38.85
2018-06-16T11:36:29.729Z,38.28
2018-06-16T11:38:58.557Z,37.75
2018-06-16T11:41:27.176Z,36.70
2018-06-16T11:43:55.839Z,37.02
2018-06-16T11:46:24.482Z,36.78
2018-06-16T11:48:53.276Z,36.62
2018-06-16T11:51:22.015Z,36.38
2018-06-16T11:53:50.635Z,36.18
2018-06-16T11:56:19.399Z,36.09
2018-06-16T11:58:48.106Z,35.75
2018-06-16T12:01:16.840Z,35.56
2018-06-16T12:03:45.456Z,35.37
2018-06-16T12:06:14.190Z,35.20
2018-06-16T12:08:42.803Z,35.14
2018-06-16T12:11:11.522Z,35.15
2018-06-16T12:13:40.380Z,35.25
2018-06-16T12:16:08.979Z,35.38
2018-06-16T12:18:37.484Z,35.36
2018-06-16T12:21:06.036Z,35.38
2018-06-16T12:23:34.644Z,35.54
2018-06-16T12:26:03.367Z,35.67
2018-06-16T12:28:31.923Z,35.78
2018-06-16T12:31:00.533Z,35.59
2018-06-16T12:33:29.107Z,35.51
2018-06-16T12:35:57.864Z,35.55
2018-06-16T12:38:26.512Z,35.57
2018-06-16T12:40:55.358Z,35.52
2018-06-16T12:43:24.222Z,35.51
2018-06-16T12:45:53.319Z,35.47
2018-06-16T12:48:22.155Z,35.38
2018-06-16T12:50:51.022Z,35.23
2018-06-16T12:53:19.955Z,35.02
2018-06-16T12:55:48.757Z,34.78
2018-06-16T12:58:17.372Z,34.51
2018-06-16T13:00:46.117Z,34.37
2018-06-16T13:03:14.794Z,34.34
2018-06-16T13:05:43.644Z,34.33
2018-06-16T13:08:12.228Z,34.28
2018-06-16T13:10:40.979Z,34.17
2018-06-16T13:13:09.704Z,33.91
2018-06-16T13:15:38.655Z,33.68
2018-06-16T13:18:07.363Z,33.41
2018-06-16T13:20:36.008Z,33.10
2018-06-16T13:23:04.691Z,32.82
2018-06-16T13:25:33.548Z,32.52
2018-06-16T13:28:02.480Z,32.27
2018-06-16T13:30:31.254Z,32.05
2018-06-16T13:33:00.310Z,31.82
2018-06-16T13:35:28.905Z,31.60
2018-06-16T13:37:57.608Z,31.41
2018-06-16T13:40:26.224Z,31.22
2018-06-16T13:42:54.816Z,31.06
2018-06-16T13:45:23.990Z,30.87
2018-06-16T13:47:52.726Z,30.70
2018-06-16T13:50:25.089Z,30.57
2018-06-16T13:52:53.714Z,30.46
2018-06-16T13:55:22.456Z,30.37
2018-06-16T13:57:51.111Z,30.30
2018-06-16T14:00:19.782Z,30.24
2018-06-16T14:02:49.215Z,30.18
2018-06-16T14:05:18.113Z,30.13
2018-06-16T14:07:46.783Z,30.09
2018-06-16T14:10:15.424Z,30.06
2018-06-16T14:12:43.987Z,30.02
2018-06-16T14:15:13.175Z,30.01
2018-06-16T14:17:41.891Z,30.09
2018-06-16T14:20:10.929Z,30.24
2018-06-16T14:22:39.876Z,29.89
2018-06-16T14:25:08.580Z,30.81
2018-06-16T14:27:37.149Z,30.95
2018-06-16T14:30:05.730Z,30.98
2018-06-16T14:32:34.414Z,30.98
2018-06-16T14:35:02.999Z,30.98
2018-06-16T14:37:31.592Z,30.96
2018-06-16T14:40:00.284Z,30.96
2018-06-16T14:42:28.953Z,30.87
2018-06-16T14:44:57.991Z,30.73
2018-06-16T14:47:27.512Z,30.68
2018-06-16T14:49:56.279Z,30.70
2018-06-16T14:52:24.940Z,30.77
2018-06-16T14:54:53.821Z,30.90
2018-06-16T14:57:22.660Z,31.08
2018-06-16T14:59:51.499Z,31.22
2018-06-16T15:02:20.355Z,31.29
2018-06-16T15:04:49.094Z,31.36
2018-06-16T15:07:17.636Z,31.32
2018-06-16T15:09:46.270Z,31.23
2018-06-16T15:12:15.259Z,31.14
2018-06-16T15:14:43.872Z,31.08
2018-06-16T15:17:12.654Z,31.07
2018-06-16T15:19:41.308Z,31.02
2018-06-16T15:22:09.956Z,30.94
2018-06-16T15:24:38.640Z,30.84
2018-06-16T15:27:07.428Z,30.85
2018-06-16T15:29:36.192Z,30.90
2018-06-16T15:32:04.862Z,30.94
2018-06-16T15:34:33.633Z,30.97
2018-06-16T15:37:02.531Z,31.04
2018-06-16T15:39:31.292Z,31.08
2018-06-16T15:42:00.035Z,31.09
2018-06-16T15:44:28.698Z,31.05
2018-06-16T15:46:57.489Z,31.00
2018-06-16T15:49:26.195Z,30.93
2018-06-16T15:51:54.999Z,30.86
2018-06-16T15:54:23.937Z,30.77
2018-06-16T15:56:52.670Z,30.73
2018-06-16T15:59:21.473Z,30.74
2018-06-16T16:01:50.339Z,30.67
2018-06-16T16:04:19.164Z,30.60
2018-06-16T16:06:47.879Z,30.52
2018-06-16T16:09:16.510Z,30.43
2018-06-16T16:11:45.149Z,30.41
2018-06-16T16:14:13.847Z,30.31
2018-06-16T16:16:42.501Z,30.26
2018-06-16T16:19:11.106Z,30.18
2018-06-16T16:21:39.906Z,30.12
2018-06-16T16:24:08.893Z,30.03
2018-06-16T16:26:37.543Z,29.91
2018-06-16T16:29:06.276Z,29.77
2018-06-16T16:31:34.983Z,29.66
2018-06-16T16:34:03.591Z,29.57
2018-06-16T16:36:32.220Z,29.49
2018-06-16T16:39:00.818Z,29.45
2018-06-16T16:41:29.421Z,29.43
2018-06-16T16:43:58.062Z,29.41
2018-06-16T16:46:26.688Z,29.32
2018-06-16T16:48:55.371Z,29.22
2018-06-16T16:51:24.076Z,29.05
2018-06-16T16:53:52.784Z,28.83
2018-06-16T16:56:21.429Z,28.61
2018-06-16T16:58:50.028Z,28.35
2018-06-16T17:01:18.556Z,28.12
2018-06-16T17:03:47.163Z,27.97
2018-06-16T17:06:15.698Z,27.87
2018-06-16T17:08:44.421Z,27.78
2018-06-16T17:11:13.379Z,27.69
2018-06-16T17:13:42.160Z,27.59
2018-06-16T17:16:10.889Z,27.50
2018-06-16T17:18:39.494Z,27.43
2018-06-16T17:21:08.154Z,27.34
2018-06-16T17:23:36.820Z,27.29
2018-06-16T17:26:05.505Z,27.24
2018-06-16T17:28:34.191Z,27.18
2018-06-16T17:31:02.785Z,27.14
2018-06-16T17:33:31.308Z,27.12
2018-06-16T17:36:00.096Z,27.10
2018-06-16T17:38:28.683Z,27.07
2018-06-16T17:40:57.422Z,27.07
2018-06-16T17:43:26.294Z,27.08
2018-06-16T17:45:55.083Z,27.12
2018-06-16T17:48:24.136Z,27.12
2018-06-16T17:50:52.982Z,27.10
2018-06-16T17:53:21.720Z,27.09
2018-06-16T17:55:50.392Z,27.07
2018-06-16T17:58:19.081Z,27.05
2018-06-16T18:00:47.546Z,27.03
2018-06-16T18:03:16.305Z,27.02
2018-06-16T18:05:44.988Z,27.01
2018-06-16T18:08:13.683Z,27.02
2018-06-16T18:10:42.196Z,27.03
2018-06-16T18:13:10.770Z,27.03
2018-06-16T18:15:39.338Z,27.01
2018-06-16T18:18:07.882Z,26.98
2018-06-16T18:20:36.344Z,26.94
2018-06-16T18:23:04.843Z,26.87
2018-06-16T18:25:33.373Z,26.81
2018-06-16T18:28:01.991Z,26.75
2018-06-16T18:30:30.880Z,26.70
2018-06-16T18:32:59.673Z,26.65
2018-06-16T18:35:28.313Z,26.61
2018-06-16T18:37:56.917Z,26.54
2018-06-16T18:40:25.437Z,26.52
2018-06-16T18:42:53.891Z,26.46
2018-06-16T18:45:23.255Z,26.41
2018-06-16T18:47:51.913Z,26.34
2018-06-16T18:50:20.473Z,26.24
2018-06-16T18:52:49.030Z,26.13
2018-06-16T18:55:17.593Z,26.03
2018-06-16T18:57:46.065Z,25.92
2018-06-16T19:00:14.885Z,25.83
2018-06-16T19:02:43.688Z,25.74
2018-06-16T19:05:12.328Z,25.64
2018-06-16T19:07:40.953Z,25.55
2018-06-16T19:10:09.973Z,25.50
2018-06-16T19:12:38.630Z,25.46
2018-06-16T19:15:07.276Z,25.43
2018-06-16T19:17:35.839Z,25.36
2018-06-16T19:20:04.632Z,25.33
2018-06-16T19:22:33.118Z,25.26
2018-06-16T19:25:01.642Z,25.15
2018-06-16T19:27:30.303Z,25.05
2018-06-16T19:29:58.990Z,24.99
2018-06-16T19:32:27.697Z,24.91
2018-06-16T19:34:56.387Z,24.88
2018-06-16T19:37:25.102Z,24.86
2018-06-16T19:39:53.970Z,24.84
2018-06-16T19:42:22.716Z,24.82
2018-06-16T19:44:51.411Z,24.78
2018-06-16T19:47:20.031Z,24.74
2018-06-16T19:49:48.781Z,24.73
2018-06-16T19:52:17.470Z,24.68
2018-06-16T19:54:46.116Z,24.64
2018-06-16T19:57:14.814Z,24.61
2018-06-16T19:59:43.533Z,24.59
2018-06-16T20:02:12.189Z,24.53
2018-06-16T20:04:40.920Z,24.47
2018-06-16T20:07:09.637Z,24.43
2018-06-16T20:09:38.317Z,24.38
2018-06-16T20:12:07.012Z,24.35
2018-06-16T20:14:35.715Z,24.34
2018-06-16T20:17:04.454Z,24.32
2018-06-16T20:19:33.350Z,24.27
2018-06-16T20:22:02.034Z,24.20
2018-06-16T20:24:30.822Z,24.16
2018-06-16T20:26:59.536Z,24.10
2018-06-16T20:29:28.498Z,24.05
2018-06-16T20:31:57.188Z,23.98
2018-06-16T20:34:25.944Z,23.93
2018-06-16T20:36:54.652Z,23.84
2018-06-16T20:39:23.263Z,23.76
2018-06-16T20:41:52.111Z,23.68
2018-06-16T20:44:20.813Z,23.61
2018-06-16T20:46:49.450Z,23.56
2018-06-16T20:49:18.174Z,23.51
2018-06-16T20:51:46.832Z,23.47
2018-06-16T20:54:15.530Z,23.42
2018-06-16T20:56:44.508Z,23.35
2018-06-16T20:59:13.188Z,23.32
2018-06-16T21:01:41.959Z,23.30
2018-06-16T21:04:10.589Z,23.27
2018-06-16T21:06:39.280Z,23.25
2018-06-16T21:09:09.825Z,23.24
2018-06-16T21:11:38.449Z,23.24
2018-06-16T21:14:07.257Z,23.22
2018-06-16T21:16:36.179Z,23.22
2018-06-16T21:19:04.891Z,23.22
2018-06-16T21:21:33.792Z,23.23
2018-06-16T21:24:02.613Z,23.24
2018-06-16T21:26:31.477Z,23.25
2018-06-16T21:29:00.104Z,23.25
2018-06-16T21:31:28.735Z,23.24
2018-06-16T21:33:57.398Z,23.23
2018-06-16T21:36:26.159Z,23.24
2018-06-16T21:38:54.691Z,23.27
2018-06-16T21:41:23.398Z,23.33
2018-06-16T21:43:52.267Z,23.34
2018-06-16T21:46:20.989Z,23.34
2018-06-16T21:48:49.639Z,23.35
2018-06-16T21:51:18.374Z,23.32
2018-06-16T21:53:47.157Z,23.30
2018-06-16T21:56:15.873Z,23.27
2018-06-16T21:58:44.600Z,23.21
2018-06-16T22:01:13.159Z,23.15
2018-06-16T22:03:41.766Z,23.09
2018-06-16T22:06:10.445Z,23.03
2018-06-16T22:08:39.051Z,23.00
2018-06-16T22:11:07.866Z,22.95
2018-06-16T22:13:36.606Z,22.89
2018-06-16T22:16:05.162Z,22.83
2018-06-16T22:18:33.872Z,22.79
2018-06-16T22:21:02.440Z,22.75
2018-06-16T22:23:31.008Z,22.70
2018-06-16T22:25:59.512Z,22.65
2018-06-16T22:28:28.126Z,22.63
2018-06-16T22:30:56.777Z,22.62
2018-06-16T22:33:25.428Z,22.60
2018-06-16T22:35:54.080Z,22.59
2018-06-16T22:38:22.733Z,22.59
2018-06-16T22:40:51.498Z,22.59
2018-06-16T22:43:20.138Z,22.59
2018-06-16T22:45:48.882Z,22.60
2018-06-16T22:48:17.428Z,22.60
2018-06-16T22:50:46.183Z,22.58
2018-06-16T22:53:14.946Z,22.57
2018-06-16T22:55:43.781Z,22.60
2018-06-16T22:58:12.534Z,22.64
2018-06-16T23:00:41.613Z,22.68
2018-06-16T23:03:10.200Z,22.72
2018-06-16T23:05:39.066Z,22.76
2018-06-16T23:08:07.709Z,22.75
2018-06-16T23:10:36.292Z,22.75
2018-06-16T23:13:05.005Z,22.73
2018-06-16T23:15:33.688Z,22.72
2018-06-16T23:18:02.338Z,22.69
2018-06-16T23:20:30.855Z,22.64
2018-06-16T23:22:59.411Z,22.59
2018-06-16T23:25:27.975Z,22.54
2018-06-16T23:27:56.477Z,22.50
2018-06-16T23:30:25.100Z,22.44
2018-06-16T23:32:53.735Z,22.42
2018-06-16T23:35:22.226Z,22.40
2018-06-16T23:37:51.064Z,22.40
2018-06-16T23:40:19.654Z,22.36
2018-06-16T23:42:48.265Z,22.33
2018-06-16T23:45:16.784Z,22.33
2018-06-16T23:47:45.340Z,22.31
2018-06-16T23:50:13.876Z,22.31
2018-06-16T23:52:42.592Z,22.29
2018-06-16T23:55:11.099Z,22.23
2018-06-16T23:57:39.850Z,22.19
